sensor_id;sensor_type;location;lat;lon;timestamp;P1;durP1;ratioP1;P2;durP2;ratioP2
57822;SDS011;43650;48.064;20.624;2022-09-27T00:00:51;8.00;;;5.20;;
57822;SDS011;43650;48.064;20.624;2022-09-27T00:01:51;11.50;;;5.83;;
57822;SDS011;43650;48.064;20.624;2022-09-27T00:02:51;7.43;;;4.80;;
57822;SDS011;43650;48.064;20.624;2022-09-27T00:03:52;8.97;;;5.13;;
57822;SDS011;43650;48.064;20.624;2022-09-27T00:04:54;10.38;;;4.80;;
57822;SDS011;43650;48.064;20.624;2022-09-27T00:07:06;6.60;;;4.45;;
57822;SDS011;43650;48.064;20.624;2022-09-27T00:08:06;7.10;;;4.00;;
57822;SDS011;43650;48.064;20.624;2022-09-27T00:09:08;7.25;;;4.43;;
57822;SDS011;43650;48.064;20.624;2022-09-27T00:10:09;7.20;;;4.22;;
57822;SDS011;43650;48.064;20.624;2022-09-27T00:11:22;7.87;;;4.32;;
57822;SDS011;43650;48.064;20.624;2022-09-27T00:12:23;7.43;;;4.50;;
57822;SDS011;43650;48.064;20.624;2022-09-27T00:13:24;7.83;;;4.90;;
57822;SDS011;43650;48.064;20.624;2022-09-27T00:14:24;10.10;;;5.03;;
57822;SDS011;43650;48.064;20.624;2022-09-27T00:15:25;8.83;;;4.83;;
57822;SDS011;43650;48.064;20.624;2022-09-27T00:16:26;7.90;;;4.97;;
57822;SDS011;43650;48.064;20.624;2022-09-27T00:17:29;8.43;;;5.12;;
57822;SDS011;43650;48.064;20.624;2022-09-27T00:18:29;7.17;;;5.03;;
57822;SDS011;43650;48.064;20.624;2022-09-27T00:19:31;11.52;;;4.95;;
57822;SDS011;43650;48.064;20.624;2022-09-27T00:20:33;10.20;;;5.00;;
57822;SDS011;43650;48.064;20.624;2022-09-27T00:21:33;8.07;;;4.72;;
57822;SDS011;43650;48.064;20.624;2022-09-27T00:22:34;8.02;;;5.10;;
57822;SDS011;43650;48.064;20.624;2022-09-27T00:23:35;9.82;;;5.55;;
57822;SDS011;43650;48.064;20.624;2022-09-27T00:24:36;7.22;;;4.53;;
57822;SDS011;43650;48.064;20.624;2022-09-27T00:25:37;7.03;;;4.57;;
57822;SDS011;43650;48.064;20.624;2022-09-27T00:26:37;9.67;;;5.07;;
57822;SDS011;43650;48.064;20.624;2022-09-27T00:27:38;6.83;;;4.63;;
57822;SDS011;43650;48.064;20.624;2022-09-27T00:28:38;8.77;;;5.30;;
57822;SDS011;43650;48.064;20.624;2022-09-27T00:29:39;13.77;;;4.82;;
57822;SDS011;43650;48.064;20.624;2022-09-27T00:30:40;6.60;;;4.13;;
57822;SDS011;43650;48.064;20.624;2022-09-27T00:31:41;6.47;;;4.50;;
57822;SDS011;43650;48.064;20.624;2022-09-27T00:32:41;6.20;;;3.73;;
57822;SDS011;43650;48.064;20.624;2022-09-27T00:33:42;9.23;;;4.97;;
57822;SDS011;43650;48.064;20.624;2022-09-27T00:34:42;7.57;;;4.20;;
57822;SDS011;43650;48.064;20.624;2022-09-27T00:35:43;6.62;;;4.15;;
57822;SDS011;43650;48.064;20.624;2022-09-27T00:36:44;5.23;;;3.40;;
57822;SDS011;43650;48.064;20.624;2022-09-27T00:37:46;6.17;;;4.10;;
57822;SDS011;43650;48.064;20.624;2022-09-27T00:38:47;5.55;;;3.72;;
57822;SDS011;43650;48.064;20.624;2022-09-27T00:39:48;6.62;;;4.00;;
57822;SDS011;43650;48.064;20.624;2022-09-27T00:40:48;7.20;;;3.67;;
57822;SDS011;43650;48.064;20.624;2022-09-27T00:41:49;6.87;;;4.37;;
57822;SDS011;43650;48.064;20.624;2022-09-27T00:42:50;6.15;;;4.35;;
57822;SDS011;43650;48.064;20.624;2022-09-27T00:43:54;8.27;;;5.60;;
57822;SDS011;43650;48.064;20.624;2022-09-27T00:45:03;13.05;;;6.68;;
57822;SDS011;43650;48.064;20.624;2022-09-27T00:46:05;18.23;;;8.25;;
57822;SDS011;43650;48.064;20.624;2022-09-27T00:48:44;20.27;;;8.98;;
57822;SDS011;43650;48.064;20.624;2022-09-27T00:51:24;23.27;;;9.80;;
57822;SDS011;43650;48.064;20.624;2022-09-27T00:53:34;16.12;;;7.87;;
57822;SDS011;43650;48.064;20.624;2022-09-27T00:54:38;11.52;;;6.47;;
57822;SDS011;43650;48.064;20.624;2022-09-27T00:55:52;11.25;;;6.25;;
57822;SDS011;43650;48.064;20.624;2022-09-27T00:56:55;10.18;;;6.05;;
57822;SDS011;43650;48.064;20.624;2022-09-27T00:57:56;12.32;;;6.30;;
57822;SDS011;43650;48.064;20.624;2022-09-27T00:58:58;13.30;;;5.72;;
57822;SDS011;43650;48.064;20.624;2022-09-27T01:00:07;10.50;;;5.25;;
57822;SDS011;43650;48.064;20.624;2022-09-27T01:01:09;11.25;;;5.68;;
57822;SDS011;43650;48.064;20.624;2022-09-27T01:03:12;11.00;;;6.62;;
57822;SDS011;43650;48.064;20.624;2022-09-27T01:04:16;14.35;;;7.75;;
57822;SDS011;43650;48.064;20.624;2022-09-27T01:05:22;18.12;;;9.05;;
57822;SDS011;43650;48.064;20.624;2022-09-27T01:06:24;19.98;;;10.27;;
57822;SDS011;43650;48.064;20.624;2022-09-27T01:07:25;21.10;;;11.50;;
57822;SDS011;43650;48.064;20.624;2022-09-27T01:08:25;14.57;;;9.27;;
57822;SDS011;43650;48.064;20.624;2022-09-27T01:09:25;15.90;;;9.10;;
57822;SDS011;43650;48.064;20.624;2022-09-27T01:10:30;14.25;;;7.32;;
57822;SDS011;43650;48.064;20.624;2022-09-27T01:13:01;9.82;;;6.37;;
57822;SDS011;43650;48.064;20.624;2022-09-27T01:19:15;8.18;;;4.28;;
57822;SDS011;43650;48.064;20.624;2022-09-27T01:20:36;6.65;;;4.62;;
57822;SDS011;43650;48.064;20.624;2022-09-27T01:21:55;11.95;;;6.72;;
57822;SDS011;43650;48.064;20.624;2022-09-27T01:26:59;9.80;;;5.75;;
57822;SDS011;43650;48.064;20.624;2022-09-27T01:28:19;10.68;;;6.53;;
57822;SDS011;43650;48.064;20.624;2022-09-27T01:29:38;8.98;;;6.35;;
57822;SDS011;43650;48.064;20.624;2022-09-27T01:31:02;9.50;;;6.30;;
57822;SDS011;43650;48.064;20.624;2022-09-27T01:32:33;15.43;;;6.03;;
57822;SDS011;43650;48.064;20.624;2022-09-27T01:35:16;7.35;;;4.87;;
57822;SDS011;43650;48.064;20.624;2022-09-27T01:38:39;7.40;;;4.93;;
57822;SDS011;43650;48.064;20.624;2022-09-27T01:42:27;9.00;;;6.78;;
57822;SDS011;43650;48.064;20.624;2022-09-27T01:43:33;9.93;;;6.95;;
57822;SDS011;43650;48.064;20.624;2022-09-27T01:45:55;8.50;;;6.28;;
57822;SDS011;43650;48.064;20.624;2022-09-27T01:47:00;8.43;;;5.90;;
57822;SDS011;43650;48.064;20.624;2022-09-27T01:48:12;8.65;;;5.57;;
57822;SDS011;43650;48.064;20.624;2022-09-27T01:49:16;7.75;;;5.43;;
57822;SDS011;43650;48.064;20.624;2022-09-27T01:50:26;7.75;;;5.57;;
57822;SDS011;43650;48.064;20.624;2022-09-27T01:51:38;9.13;;;6.53;;
57822;SDS011;43650;48.064;20.624;2022-09-27T01:54:16;7.93;;;4.82;;
57822;SDS011;43650;48.064;20.624;2022-09-27T01:55:19;6.10;;;4.22;;
57822;SDS011;43650;48.064;20.624;2022-09-27T01:56:26;6.37;;;4.75;;
57822;SDS011;43650;48.064;20.624;2022-09-27T01:57:34;5.90;;;4.18;;
57822;SDS011;43650;48.064;20.624;2022-09-27T01:58:40;7.05;;;4.25;;
57822;SDS011;43650;48.064;20.624;2022-09-27T01:59:46;6.22;;;4.12;;
57822;SDS011;43650;48.064;20.624;2022-09-27T02:00:50;6.78;;;4.28;;
57822;SDS011;43650;48.064;20.624;2022-09-27T02:01:52;5.15;;;3.65;;
57822;SDS011;43650;48.064;20.624;2022-09-27T02:03:27;6.28;;;4.32;;
57822;SDS011;43650;48.064;20.624;2022-09-27T02:04:21;5.47;;;3.60;;
57822;SDS011;43650;48.064;20.624;2022-09-27T02:05:25;6.35;;;4.15;;
57822;SDS011;43650;48.064;20.624;2022-09-27T02:06:32;6.30;;;4.10;;
57822;SDS011;43650;48.064;20.624;2022-09-27T02:07:39;5.93;;;4.30;;
57822;SDS011;43650;48.064;20.624;2022-09-27T02:10:02;5.00;;;3.67;;
57822;SDS011;43650;48.064;20.624;2022-09-27T02:11:11;7.18;;;4.72;;
57822;SDS011;43650;48.064;20.624;2022-09-27T02:12:13;7.03;;;4.70;;
57822;SDS011;43650;48.064;20.624;2022-09-27T02:13:23;7.40;;;4.68;;
57822;SDS011;43650;48.064;20.624;2022-09-27T02:14:34;7.43;;;4.87;;
57822;SDS011;43650;48.064;20.624;2022-09-27T02:17:10;5.57;;;4.43;;
57822;SDS011;43650;48.064;20.624;2022-09-27T02:18:38;9.85;;;4.47;;
57822;SDS011;43650;48.064;20.624;2022-09-27T02:19:48;5.28;;;3.87;;
57822;SDS011;43650;48.064;20.624;2022-09-27T02:20:54;6.70;;;4.37;;
57822;SDS011;43650;48.064;20.624;2022-09-27T02:23:35;6.35;;;4.03;;
57822;SDS011;43650;48.064;20.624;2022-09-27T02:24:45;5.28;;;3.97;;
57822;SDS011;43650;48.064;20.624;2022-09-27T02:25:53;6.32;;;4.28;;
57822;SDS011;43650;48.064;20.624;2022-09-27T02:27:00;5.85;;;4.35;;
57822;SDS011;43650;48.064;20.624;2022-09-27T02:29:22;6.87;;;4.95;;
57822;SDS011;43650;48.064;20.624;2022-09-27T02:30:24;9.43;;;5.70;;
57822;SDS011;43650;48.064;20.624;2022-09-27T02:31:25;10.10;;;6.00;;
57822;SDS011;43650;48.064;20.624;2022-09-27T02:32:25;9.83;;;7.10;;
57822;SDS011;43650;48.064;20.624;2022-09-27T02:33:48;9.45;;;5.68;;
57822;SDS011;43650;48.064;20.624;2022-09-27T02:34:51;9.82;;;6.53;;
57822;SDS011;43650;48.064;20.624;2022-09-27T02:35:53;8.13;;;5.43;;
57822;SDS011;43650;48.064;20.624;2022-09-27T02:36:54;6.27;;;4.67;;
57822;SDS011;43650;48.064;20.624;2022-09-27T02:37:54;6.23;;;4.73;;
57822;SDS011;43650;48.064;20.624;2022-09-27T02:38:55;5.87;;;4.57;;
57822;SDS011;43650;48.064;20.624;2022-09-27T02:39:56;6.37;;;4.60;;
57822;SDS011;43650;48.064;20.624;2022-09-27T02:40:57;5.03;;;3.35;;
57822;SDS011;43650;48.064;20.624;2022-09-27T02:41:57;4.87;;;3.30;;
57822;SDS011;43650;48.064;20.624;2022-09-27T02:44:02;4.85;;;3.37;;
57822;SDS011;43650;48.064;20.624;2022-09-27T02:45:04;4.68;;;3.37;;
57822;SDS011;43650;48.064;20.624;2022-09-27T02:47:24;5.70;;;3.45;;
57822;SDS011;43650;48.064;20.624;2022-09-27T02:57:36;34.20;;;9.05;;
57822;SDS011;43650;48.064;20.624;2022-09-27T03:00:14;8.25;;;5.40;;
57822;SDS011;43650;48.064;20.624;2022-09-27T03:05:31;8.95;;;5.43;;
57822;SDS011;43650;48.064;20.624;2022-09-27T03:06:34;10.77;;;5.82;;
57822;SDS011;43650;48.064;20.624;2022-09-27T03:07:35;9.07;;;5.45;;
57822;SDS011;43650;48.064;20.624;2022-09-27T03:08:37;8.63;;;4.68;;
57822;SDS011;43650;48.064;20.624;2022-09-27T03:09:45;4.77;;;3.40;;
57822;SDS011;43650;48.064;20.624;2022-09-27T03:10:47;4.28;;;3.40;;
57822;SDS011;43650;48.064;20.624;2022-09-27T03:11:47;6.53;;;4.50;;
57822;SDS011;43650;48.064;20.624;2022-09-27T03:12:48;8.97;;;3.97;;
57822;SDS011;43650;48.064;20.624;2022-09-27T03:13:49;4.45;;;3.45;;
57822;SDS011;43650;48.064;20.624;2022-09-27T03:14:54;4.35;;;2.97;;
57822;SDS011;43650;48.064;20.624;2022-09-27T03:15:57;5.87;;;3.40;;
57822;SDS011;43650;48.064;20.624;2022-09-27T03:16:57;7.57;;;4.57;;
57822;SDS011;43650;48.064;20.624;2022-09-27T03:17:57;13.93;;;5.90;;
57822;SDS011;43650;48.064;20.624;2022-09-27T03:18:58;10.52;;;6.50;;
57822;SDS011;43650;48.064;20.624;2022-09-27T03:19:59;9.50;;;5.53;;
57822;SDS011;43650;48.064;20.624;2022-09-27T03:20:59;12.27;;;6.40;;
57822;SDS011;43650;48.064;20.624;2022-09-27T03:22:00;7.10;;;4.40;;
57822;SDS011;43650;48.064;20.624;2022-09-27T03:23:00;7.40;;;4.37;;
57822;SDS011;43650;48.064;20.624;2022-09-27T03:24:01;6.90;;;4.20;;
57822;SDS011;43650;48.064;20.624;2022-09-27T03:25:03;5.15;;;3.67;;
57822;SDS011;43650;48.064;20.624;2022-09-27T03:26:04;4.97;;;3.40;;
57822;SDS011;43650;48.064;20.624;2022-09-27T03:27:05;5.67;;;3.90;;
57822;SDS011;43650;48.064;20.624;2022-09-27T03:28:05;6.87;;;4.40;;
57822;SDS011;43650;48.064;20.624;2022-09-27T03:29:06;6.07;;;4.53;;
57822;SDS011;43650;48.064;20.624;2022-09-27T03:30:06;10.10;;;5.80;;
57822;SDS011;43650;48.064;20.624;2022-09-27T03:31:08;9.93;;;4.82;;
57822;SDS011;43650;48.064;20.624;2022-09-27T03:32:08;8.37;;;4.10;;
57822;SDS011;43650;48.064;20.624;2022-09-27T03:33:09;7.05;;;4.45;;
57822;SDS011;43650;48.064;20.624;2022-09-27T03:34:09;17.10;;;4.57;;
57822;SDS011;43650;48.064;20.624;2022-09-27T03:35:10;6.20;;;5.17;;
57822;SDS011;43650;48.064;20.624;2022-09-27T03:36:11;9.50;;;4.80;;
57822;SDS011;43650;48.064;20.624;2022-09-27T03:37:12;6.47;;;4.33;;
57822;SDS011;43650;48.064;20.624;2022-09-27T03:38:12;5.00;;;3.53;;
57822;SDS011;43650;48.064;20.624;2022-09-27T03:39:13;4.32;;;3.47;;
57822;SDS011;43650;48.064;20.624;2022-09-27T03:40:13;5.47;;;3.93;;
57822;SDS011;43650;48.064;20.624;2022-09-27T03:41:14;5.97;;;4.03;;
57822;SDS011;43650;48.064;20.624;2022-09-27T03:42:14;7.13;;;3.73;;
57822;SDS011;43650;48.064;20.624;2022-09-27T03:43:15;7.10;;;4.27;;
57822;SDS011;43650;48.064;20.624;2022-09-27T03:44:15;6.90;;;4.70;;
57822;SDS011;43650;48.064;20.624;2022-09-27T03:45:16;6.07;;;3.93;;
57822;SDS011;43650;48.064;20.624;2022-09-27T03:46:17;6.57;;;4.28;;
57822;SDS011;43650;48.064;20.624;2022-09-27T03:47:17;5.77;;;3.77;;
57822;SDS011;43650;48.064;20.624;2022-09-27T03:48:18;5.80;;;3.47;;
57822;SDS011;43650;48.064;20.624;2022-09-27T03:49:19;4.83;;;3.67;;
57822;SDS011;43650;48.064;20.624;2022-09-27T03:50:19;8.60;;;4.87;;
57822;SDS011;43650;48.064;20.624;2022-09-27T03:51:20;6.00;;;3.97;;
57822;SDS011;43650;48.064;20.624;2022-09-27T03:52:20;6.77;;;4.17;;
57822;SDS011;43650;48.064;20.624;2022-09-27T03:53:20;5.80;;;3.73;;
57822;SDS011;43650;48.064;20.624;2022-09-27T03:54:21;4.60;;;3.00;;
57822;SDS011;43650;48.064;20.624;2022-09-27T03:55:21;5.07;;;3.83;;
57822;SDS011;43650;48.064;20.624;2022-09-27T03:56:22;4.00;;;3.17;;
57822;SDS011;43650;48.064;20.624;2022-09-27T03:57:22;4.43;;;3.30;;
57822;SDS011;43650;48.064;20.624;2022-09-27T03:58:23;5.47;;;3.70;;
57822;SDS011;43650;48.064;20.624;2022-09-27T03:59:23;5.63;;;3.90;;
57822;SDS011;43650;48.064;20.624;2022-09-27T04:00:24;9.03;;;4.33;;
57822;SDS011;43650;48.064;20.624;2022-09-27T04:01:25;6.50;;;3.97;;
57822;SDS011;43650;48.064;20.624;2022-09-27T04:03:26;7.57;;;3.85;;
57822;SDS011;43650;48.064;20.624;2022-09-27T04:04:27;5.87;;;3.17;;
57822;SDS011;43650;48.064;20.624;2022-09-27T04:05:28;6.18;;;4.47;;
57822;SDS011;43650;48.064;20.624;2022-09-27T04:06:28;6.70;;;4.60;;
57822;SDS011;43650;48.064;20.624;2022-09-27T04:07:29;10.60;;;5.33;;
57822;SDS011;43650;48.064;20.624;2022-09-27T04:08:30;12.65;;;6.35;;
57822;SDS011;43650;48.064;20.624;2022-09-27T04:09:30;18.12;;;10.82;;
57822;SDS011;43650;48.064;20.624;2022-09-27T04:10:31;72.80;;;32.30;;
57822;SDS011;43650;48.064;20.624;2022-09-27T04:11:31;61.00;;;31.07;;
57822;SDS011;43650;48.064;20.624;2022-09-27T04:12:32;66.83;;;26.53;;
57822;SDS011;43650;48.064;20.624;2022-09-27T04:13:33;38.20;;;21.98;;
57822;SDS011;43650;48.064;20.624;2022-09-27T04:14:34;39.15;;;20.50;;
57822;SDS011;43650;48.064;20.624;2022-09-27T04:15:34;53.57;;;19.90;;
57822;SDS011;43650;48.064;20.624;2022-09-27T04:16:36;43.53;;;22.42;;
57822;SDS011;43650;48.064;20.624;2022-09-27T04:17:37;61.33;;;32.37;;
57822;SDS011;43650;48.064;20.624;2022-09-27T04:18:39;52.72;;;29.50;;
57822;SDS011;43650;48.064;20.624;2022-09-27T04:19:40;54.97;;;29.60;;
57822;SDS011;43650;48.064;20.624;2022-09-27T04:20:40;44.77;;;26.77;;
57822;SDS011;43650;48.064;20.624;2022-09-27T04:21:41;34.90;;;22.13;;
57822;SDS011;43650;48.064;20.624;2022-09-27T04:22:41;34.90;;;21.20;;
57822;SDS011;43650;48.064;20.624;2022-09-27T04:23:44;31.25;;;18.58;;
57822;SDS011;43650;48.064;20.624;2022-09-27T04:24:45;27.20;;;17.55;;
57822;SDS011;43650;48.064;20.624;2022-09-27T04:25:46;30.87;;;18.20;;
57822;SDS011;43650;48.064;20.624;2022-09-27T04:26:46;34.38;;;20.98;;
57822;SDS011;43650;48.064;20.624;2022-09-27T04:27:48;32.80;;;20.65;;
57822;SDS011;43650;48.064;20.624;2022-09-27T04:28:51;30.15;;;18.67;;
57822;SDS011;43650;48.064;20.624;2022-09-27T04:29:52;30.42;;;16.95;;
57822;SDS011;43650;48.064;20.624;2022-09-27T04:30:52;27.37;;;16.30;;
57822;SDS011;43650;48.064;20.624;2022-09-27T04:31:53;19.73;;;13.70;;
57822;SDS011;43650;48.064;20.624;2022-09-27T04:32:54;25.48;;;14.40;;
57822;SDS011;43650;48.064;20.624;2022-09-27T04:33:54;18.07;;;11.93;;
57822;SDS011;43650;48.064;20.624;2022-09-27T04:34:55;21.92;;;12.98;;
57822;SDS011;43650;48.064;20.624;2022-09-27T04:36:16;21.95;;;14.18;;
57822;SDS011;43650;48.064;20.624;2022-09-27T04:37:27;27.87;;;15.38;;
57822;SDS011;43650;48.064;20.624;2022-09-27T04:38:28;27.13;;;14.97;;
57822;SDS011;43650;48.064;20.624;2022-09-27T04:39:28;24.43;;;14.87;;
57822;SDS011;43650;48.064;20.624;2022-09-27T04:40:28;29.83;;;17.30;;
57822;SDS011;43650;48.064;20.624;2022-09-27T04:41:29;30.33;;;17.20;;
57822;SDS011;43650;48.064;20.624;2022-09-27T04:42:30;33.15;;;17.98;;
57822;SDS011;43650;48.064;20.624;2022-09-27T04:44:32;20.55;;;13.43;;
57822;SDS011;43650;48.064;20.624;2022-09-27T04:45:32;21.87;;;13.23;;
57822;SDS011;43650;48.064;20.624;2022-09-27T04:46:33;29.23;;;15.97;;
57822;SDS011;43650;48.064;20.624;2022-09-27T04:47:34;30.67;;;16.40;;
57822;SDS011;43650;48.064;20.624;2022-09-27T04:48:34;34.43;;;20.57;;
57822;SDS011;43650;48.064;20.624;2022-09-27T04:49:35;36.87;;;19.70;;
57822;SDS011;43650;48.064;20.624;2022-09-27T04:50:35;33.28;;;19.92;;
57822;SDS011;43650;48.064;20.624;2022-09-27T04:51:36;40.65;;;23.10;;
57822;SDS011;43650;48.064;20.624;2022-09-27T04:52:37;50.43;;;28.40;;
57822;SDS011;43650;48.064;20.624;2022-09-27T04:53:38;56.88;;;30.33;;
57822;SDS011;43650;48.064;20.624;2022-09-27T04:54:38;53.97;;;28.83;;
57822;SDS011;43650;48.064;20.624;2022-09-27T04:55:39;48.03;;;28.23;;
57822;SDS011;43650;48.064;20.624;2022-09-27T04:56:44;48.33;;;25.83;;
57822;SDS011;43650;48.064;20.624;2022-09-27T04:57:45;44.63;;;27.23;;
57822;SDS011;43650;48.064;20.624;2022-09-27T04:58:46;44.92;;;31.58;;
57822;SDS011;43650;48.064;20.624;2022-09-27T04:59:46;61.27;;;50.70;;
57822;SDS011;43650;48.064;20.624;2022-09-27T05:00:46;47.73;;;38.47;;
57822;SDS011;43650;48.064;20.624;2022-09-27T05:01:47;45.93;;;38.20;;
57822;SDS011;43650;48.064;20.624;2022-09-27T05:02:49;46.17;;;35.83;;
57822;SDS011;43650;48.064;20.624;2022-09-27T05:03:49;25.52;;;19.10;;
57822;SDS011;43650;48.064;20.624;2022-09-27T05:04:50;22.07;;;16.33;;
57822;SDS011;43650;48.064;20.624;2022-09-27T05:05:51;18.02;;;12.80;;
57822;SDS011;43650;48.064;20.624;2022-09-27T05:06:51;16.97;;;10.97;;
57822;SDS011;43650;48.064;20.624;2022-09-27T05:07:52;17.45;;;9.38;;
57822;SDS011;43650;48.064;20.624;2022-09-27T05:08:52;11.10;;;8.63;;
57822;SDS011;43650;48.064;20.624;2022-09-27T05:09:53;15.27;;;9.13;;
57822;SDS011;43650;48.064;20.624;2022-09-27T05:10:53;17.60;;;9.85;;
57822;SDS011;43650;48.064;20.624;2022-09-27T05:11:54;13.50;;;8.27;;
57822;SDS011;43650;48.064;20.624;2022-09-27T05:12:54;14.80;;;8.80;;
57822;SDS011;43650;48.064;20.624;2022-09-27T05:13:55;16.27;;;8.43;;
57822;SDS011;43650;48.064;20.624;2022-09-27T05:14:55;25.07;;;15.37;;
57822;SDS011;43650;48.064;20.624;2022-09-27T05:16:00;56.00;;;36.03;;
57822;SDS011;43650;48.064;20.624;2022-09-27T05:17:02;42.58;;;27.45;;
57822;SDS011;43650;48.064;20.624;2022-09-27T05:18:03;31.17;;;19.60;;
57822;SDS011;43650;48.064;20.624;2022-09-27T05:19:03;33.77;;;19.17;;
57822;SDS011;43650;48.064;20.624;2022-09-27T05:20:04;46.57;;;24.80;;
57822;SDS011;43650;48.064;20.624;2022-09-27T05:21:04;53.45;;;25.00;;
57822;SDS011;43650;48.064;20.624;2022-09-27T05:22:05;60.73;;;24.53;;
57822;SDS011;43650;48.064;20.624;2022-09-27T05:23:06;50.65;;;22.95;;
57822;SDS011;43650;48.064;20.624;2022-09-27T05:24:06;39.10;;;20.83;;
57822;SDS011;43650;48.064;20.624;2022-09-27T05:25:07;37.03;;;20.57;;
57822;SDS011;43650;48.064;20.624;2022-09-27T05:26:08;42.80;;;19.35;;
57822;SDS011;43650;48.064;20.624;2022-09-27T05:27:08;43.50;;;20.00;;
57822;SDS011;43650;48.064;20.624;2022-09-27T05:28:12;36.53;;;18.83;;
57822;SDS011;43650;48.064;20.624;2022-09-27T05:29:12;31.77;;;16.13;;
57822;SDS011;43650;48.064;20.624;2022-09-27T05:30:13;39.50;;;19.02;;
57822;SDS011;43650;48.064;20.624;2022-09-27T05:31:14;33.07;;;17.60;;
57822;SDS011;43650;48.064;20.624;2022-09-27T05:32:15;31.90;;;23.27;;
57822;SDS011;43650;48.064;20.624;2022-09-27T05:33:15;31.87;;;20.67;;
57822;SDS011;43650;48.064;20.624;2022-09-27T05:34:16;29.67;;;18.43;;
57822;SDS011;43650;48.064;20.624;2022-09-27T05:35:17;28.27;;;17.55;;
57822;SDS011;43650;48.064;20.624;2022-09-27T05:36:18;25.77;;;15.57;;
57822;SDS011;43650;48.064;20.624;2022-09-27T05:37:18;29.67;;;18.83;;
57822;SDS011;43650;48.064;20.624;2022-09-27T05:38:19;45.37;;;21.33;;
57822;SDS011;43650;48.064;20.624;2022-09-27T05:39:20;57.17;;;27.75;;
57822;SDS011;43650;48.064;20.624;2022-09-27T05:40:20;41.50;;;21.27;;
57822;SDS011;43650;48.064;20.624;2022-09-27T05:41:25;30.65;;;16.15;;
57822;SDS011;43650;48.064;20.624;2022-09-27T05:42:25;17.10;;;10.97;;
57822;SDS011;43650;48.064;20.624;2022-09-27T05:43:25;15.43;;;10.70;;
57822;SDS011;43650;48.064;20.624;2022-09-27T05:44:27;24.75;;;11.00;;
57822;SDS011;43650;48.064;20.624;2022-09-27T05:45:27;20.87;;;11.47;;
57822;SDS011;43650;48.064;20.624;2022-09-27T05:46:28;17.92;;;10.60;;
57822;SDS011;43650;48.064;20.624;2022-09-27T05:47:28;24.50;;;11.43;;
57822;SDS011;43650;48.064;20.624;2022-09-27T05:48:29;32.03;;;13.20;;
57822;SDS011;43650;48.064;20.624;2022-09-27T05:49:33;77.80;;;15.30;;
57822;SDS011;43650;48.064;20.624;2022-09-27T05:50:33;72.07;;;23.05;;
57822;SDS011;43650;48.064;20.624;2022-09-27T05:51:34;82.93;;;21.43;;
57822;SDS011;43650;48.064;20.624;2022-09-27T05:52:34;92.40;;;23.40;;
57822;SDS011;43650;48.064;20.624;2022-09-27T05:53:35;142.47;;;24.97;;
57822;SDS011;43650;48.064;20.624;2022-09-27T05:54:35;42.30;;;17.17;;
57822;SDS011;43650;48.064;20.624;2022-09-27T05:55:36;58.23;;;18.33;;
57822;SDS011;43650;48.064;20.624;2022-09-27T05:56:36;48.03;;;16.30;;
57822;SDS011;43650;48.064;20.624;2022-09-27T05:57:37;75.93;;;16.83;;
57822;SDS011;43650;48.064;20.624;2022-09-27T05:58:37;113.40;;;18.67;;
57822;SDS011;43650;48.064;20.624;2022-09-27T05:59:37;77.30;;;14.20;;
57822;SDS011;43650;48.064;20.624;2022-09-27T06:00:38;92.47;;;18.37;;
57822;SDS011;43650;48.064;20.624;2022-09-27T06:01:38;301.17;;;30.87;;
57822;SDS011;43650;48.064;20.624;2022-09-27T06:02:39;158.70;;;21.80;;
57822;SDS011;43650;48.064;20.624;2022-09-27T06:03:39;66.07;;;13.67;;
57822;SDS011;43650;48.064;20.624;2022-09-27T06:04:40;50.10;;;12.90;;
57822;SDS011;43650;48.064;20.624;2022-09-27T06:05:40;115.33;;;15.77;;
57822;SDS011;43650;48.064;20.624;2022-09-27T06:06:41;74.70;;;15.37;;
57822;SDS011;43650;48.064;20.624;2022-09-27T06:07:41;97.20;;;13.10;;
57822;SDS011;43650;48.064;20.624;2022-09-27T06:08:42;109.67;;;14.83;;
57822;SDS011;43650;48.064;20.624;2022-09-27T06:09:44;189.87;;;20.02;;
57822;SDS011;43650;48.064;20.624;2022-09-27T06:10:45;337.63;;;29.80;;
57822;SDS011;43650;48.064;20.624;2022-09-27T06:11:46;63.00;;;12.37;;
57822;SDS011;43650;48.064;20.624;2022-09-27T06:12:46;333.97;;;30.23;;
57822;SDS011;43650;48.064;20.624;2022-09-27T06:13:47;143.03;;;16.17;;
57822;SDS011;43650;48.064;20.624;2022-09-27T06:14:47;37.93;;;10.63;;
57822;SDS011;43650;48.064;20.624;2022-09-27T06:15:48;58.73;;;11.87;;
57822;SDS011;43650;48.064;20.624;2022-09-27T06:16:49;40.20;;;13.43;;
57822;SDS011;43650;48.064;20.624;2022-09-27T06:17:50;172.03;;;23.53;;
57822;SDS011;43650;48.064;20.624;2022-09-27T06:18:50;79.47;;;15.03;;
57822;SDS011;43650;48.064;20.624;2022-09-27T06:19:51;82.17;;;12.83;;
57822;SDS011;43650;48.064;20.624;2022-09-27T06:20:51;133.40;;;13.73;;
57822;SDS011;43650;48.064;20.624;2022-09-27T06:21:52;85.13;;;12.33;;
57822;SDS011;43650;48.064;20.624;2022-09-27T06:22:52;201.53;;;21.87;;
57822;SDS011;43650;48.064;20.624;2022-09-27T06:23:53;97.88;;;12.55;;
57822;SDS011;43650;48.064;20.624;2022-09-27T06:24:54;27.37;;;11.90;;
57822;SDS011;43650;48.064;20.624;2022-09-27T06:25:55;30.30;;;12.00;;
57822;SDS011;43650;48.064;20.624;2022-09-27T06:26:55;110.37;;;17.20;;
57822;SDS011;43650;48.064;20.624;2022-09-27T06:27:55;150.53;;;16.63;;
57822;SDS011;43650;48.064;20.624;2022-09-27T06:28:56;65.33;;;14.60;;
57822;SDS011;43650;48.064;20.624;2022-09-27T06:29:56;37.00;;;12.20;;
57822;SDS011;43650;48.064;20.624;2022-09-27T06:30:57;74.07;;;14.70;;
57822;SDS011;43650;48.064;20.624;2022-09-27T06:32:00;40.38;;;16.37;;
57822;SDS011;43650;48.064;20.624;2022-09-27T06:33:01;103.28;;;28.95;;
57822;SDS011;43650;48.064;20.624;2022-09-27T06:34:02;54.67;;;22.90;;
57822;SDS011;43650;48.064;20.624;2022-09-27T06:35:02;24.00;;;12.57;;
57822;SDS011;43650;48.064;20.624;2022-09-27T06:36:05;23.02;;;11.32;;
57822;SDS011;43650;48.064;20.624;2022-09-27T06:37:07;22.67;;;11.55;;
57822;SDS011;43650;48.064;20.624;2022-09-27T06:38:08;22.97;;;10.97;;
57822;SDS011;43650;48.064;20.624;2022-09-27T06:39:09;19.58;;;11.88;;
57822;SDS011;43650;48.064;20.624;2022-09-27T06:40:12;22.45;;;10.88;;
57822;SDS011;43650;48.064;20.624;2022-09-27T06:41:13;19.47;;;10.77;;
57822;SDS011;43650;48.064;20.624;2022-09-27T06:42:14;15.30;;;8.85;;
57822;SDS011;43650;48.064;20.624;2022-09-27T06:43:17;14.07;;;8.55;;
57822;SDS011;43650;48.064;20.624;2022-09-27T06:44:19;18.25;;;10.10;;
57822;SDS011;43650;48.064;20.624;2022-09-27T06:45:20;19.40;;;10.97;;
57822;SDS011;43650;48.064;20.624;2022-09-27T06:46:20;30.60;;;14.20;;
57822;SDS011;43650;48.064;20.624;2022-09-27T06:47:20;30.23;;;12.60;;
57822;SDS011;43650;48.064;20.624;2022-09-27T06:48:22;28.85;;;11.23;;
57822;SDS011;43650;48.064;20.624;2022-09-27T06:49:24;30.45;;;11.43;;
57822;SDS011;43650;48.064;20.624;2022-09-27T06:50:24;37.13;;;12.97;;
57822;SDS011;43650;48.064;20.624;2022-09-27T06:51:25;28.47;;;12.00;;
57822;SDS011;43650;48.064;20.624;2022-09-27T06:52:25;27.03;;;11.43;;
57822;SDS011;43650;48.064;20.624;2022-09-27T06:53:26;23.63;;;11.87;;
57822;SDS011;43650;48.064;20.624;2022-09-27T06:54:27;34.45;;;15.60;;
57822;SDS011;43650;48.064;20.624;2022-09-27T06:55:28;25.00;;;12.47;;
57822;SDS011;43650;48.064;20.624;2022-09-27T06:56:28;17.10;;;8.27;;